Time;durP1;ratioP1;P1;durP2;ratioP2;P2;SDS_P1;SDS_P2;PMS_P1;PMS_P2;Temp;Humidity;BMP_temperature;BMP_pressure;BME280_temperature;BME280_humidity;BME280_pressure;Samples;Min_cycle;Max_cycle;Signal;HPM_P1;HPM_P2
2023/10/04 00:01:51;;;;;;;56.90;2.60;;;;;;;;;;5053515;28;20470;-69
2023/10/04 00:04:19;;;;;;;57.40;3.93;;;;;;;;;;5053535;28;20451;-70
2023/10/04 00:06:46;;;;;;;56.90;2.87;;;;;;;;;;5053619;28;20629;-70
2023/10/04 00:09:14;;;;;;;56.87;2.50;;;;;;;;;;5053000;28;20475;-70
2023/10/04 00:11:41;;;;;;;56.77;2.53;;;;;;;;;;5052976;28;20459;-70
2023/10/04 00:14:08;;;;;;;57.20;2.80;;;;;;;;;;5053162;28;20448;-69
2023/10/04 00:16:35;;;;;;;56.67;2.50;;;;;;;;;;5053148;28;20452;-70
2023/10/04 00:19:05;;;;;;;56.83;2.80;;;;;;;;;;5048084;28;20482;-70
2023/10/04 00:21:34;;;;;;;57.70;3.00;;;;;;;;;;5052935;28;20476;-70
2023/10/04 00:24:01;;;;;;;57.57;3.07;;;;;;;;;;5052522;28;20448;-70
2023/10/04 00:26:29;;;;;;;56.77;2.67;;;;;;;;;;5053051;28;20492;-70
2023/10/04 00:28:56;;;;;;;56.60;2.70;;;;;;;;;;5052853;28;20468;-70
2023/10/04 00:31:23;;;;;;;56.77;2.70;;;;;;;;;;5052961;28;20461;-70
2023/10/04 00:33:51;;;;;;;57.73;2.60;;;;;;;;;;5052504;28;20467;-70
2023/10/04 00:36:21;;;;;;;56.80;2.80;;;;;;;;;;5052765;28;20436;-70
2023/10/04 00:38:50;;;;;;;56.80;3.00;;;;;;;;;;5052653;28;20472;-70
2023/10/04 00:41:19;;;;;;;56.60;2.50;;;;;;;;;;5057840;28;20431;-70
2023/10/04 00:43:50;;;;;;;56.77;2.40;;;;;;;;;;5073325;28;20478;-70
2023/10/04 00:46:18;;;;;;;56.50;2.30;;;;;;;;;;5054198;28;20484;-70
2023/10/04 00:48:45;;;;;;;56.70;3.77;;;;;;;;;;5052474;28;20483;-70
2023/10/04 00:51:13;;;;;;;55.80;2.60;;;;;;;;;;5052347;28;20457;-70
2023/10/04 00:53:40;;;;;;;56.07;2.43;;;;;;;;;;5052840;28;20483;-70
2023/10/04 00:56:12;;;;;;;56.60;2.57;;;;;;;;;;5052287;28;20987;-70
2023/10/04 00:58:39;;;;;;;56.23;2.40;;;;;;;;;;5052395;28;20601;-70
2023/10/04 01:01:06;;;;;;;56.80;3.17;;;;;;;;;;5052182;28;20466;-70
2023/10/04 01:03:37;;;;;;;56.43;2.30;;;;;;;;;;5052348;28;20475;-70
2023/10/04 01:06:05;;;;;;;56.83;2.57;;;;;;;;;;5052240;28;20545;-70
2023/10/04 01:08:33;;;;;;;57.80;2.80;;;;;;;;;;5052192;28;20480;-70
2023/10/04 01:11:01;;;;;;;56.70;2.40;;;;;;;;;;5052104;28;20472;-70
2023/10/04 01:13:30;;;;;;;56.60;2.70;;;;;;;;;;5052183;28;20444;-70
2023/10/04 01:15:59;;;;;;;56.70;2.40;;;;;;;;;;5052051;28;20448;-70
2023/10/04 01:18:28;;;;;;;56.57;2.40;;;;;;;;;;5051828;28;20476;-70
2023/10/04 01:20:56;;;;;;;56.17;2.60;;;;;;;;;;5051975;28;20892;-70
2023/10/04 01:23:24;;;;;;;57.13;3.27;;;;;;;;;;5052016;28;20502;-70
2023/10/04 01:25:51;;;;;;;56.57;2.47;;;;;;;;;;5051881;28;20483;-70
2023/10/04 01:28:26;;;;;;;56.40;2.30;;;;;;;;;;5051772;28;20972;-70
2023/10/04 01:30:54;;;;;;;56.33;2.10;;;;;;;;;;5051776;28;20448;-70
2023/10/04 01:33:21;;;;;;;56.47;2.53;;;;;;;;;;5051801;28;20476;-70
2023/10/04 01:35:50;;;;;;;56.67;2.40;;;;;;;;;;5051730;28;20924;-70
2023/10/04 01:38:18;;;;;;;56.37;2.30;;;;;;;;;;5051634;28;20595;-70
2023/10/04 01:40:47;;;;;;;56.57;2.30;;;;;;;;;;5051590;28;20448;-70
2023/10/04 01:43:15;;;;;;;56.63;2.30;;;;;;;;;;5051324;28;20955;-70
2023/10/04 01:45:45;;;;;;;56.30;2.57;;;;;;;;;;5050754;28;20550;-70
2023/10/04 01:48:15;;;;;;;56.17;2.40;;;;;;;;;;5050660;28;20468;-70
2023/10/04 01:50:42;;;;;;;56.60;2.50;;;;;;;;;;5051306;28;20892;-70
2023/10/04 01:53:09;;;;;;;56.77;2.50;;;;;;;;;;5050981;28;20455;-70
2023/10/04 01:55:36;;;;;;;56.80;2.70;;;;;;;;;;5051403;28;20544;-70
2023/10/04 01:58:05;;;;;;;56.90;2.60;;;;;;;;;;5051268;28;20464;-70
2023/10/04 02:00:33;;;;;;;56.80;2.57;;;;;;;;;;5051225;28;20453;-70
2023/10/04 02:03:01;;;;;;;56.57;2.30;;;;;;;;;;5050887;28;20538;-70
2023/10/04 02:05:32;;;;;;;56.50;2.40;;;;;;;;;;5050835;28;20546;-70
2023/10/04 02:08:00;;;;;;;60.90;3.17;;;;;;;;;;5051065;28;20475;-70
2023/10/04 02:10:28;;;;;;;56.77;2.50;;;;;;;;;;5050632;28;20452;-70
2023/10/04 02:12:55;;;;;;;56.70;2.50;;;;;;;;;;5050844;28;20869;-70
2023/10/04 02:15:24;;;;;;;56.70;2.70;;;;;;;;;;5050905;28;20472;-70
2023/10/04 02:17:53;;;;;;;56.17;2.27;;;;;;;;;;5049814;28;20495;-68
2023/10/04 02:20:23;;;;;;;56.40;2.23;;;;;;;;;;5050361;28;20963;-69
2023/10/04 02:22:50;;;;;;;56.43;2.30;;;;;;;;;;5050938;28;20456;-69
2023/10/04 02:25:19;;;;;;;56.80;2.63;;;;;;;;;;5050672;28;20490;-70
2023/10/04 02:27:49;;;;;;;56.80;2.77;;;;;;;;;;5050632;28;21341;-70
2023/10/04 02:30:21;;;;;;;56.37;2.23;;;;;;;;;;5050214;28;20824;-70
2023/10/04 02:32:50;;;;;;;56.37;2.60;;;;;;;;;;5050582;28;20634;-70
2023/10/04 02:35:25;;;;;;;56.57;2.30;;;;;;;;;;5050616;28;20452;-69
2023/10/04 02:37:54;;;;;;;56.63;2.50;;;;;;;;;;5050510;28;20471;-69
2023/10/04 02:40:22;;;;;;;56.57;2.40;;;;;;;;;;5050463;28;20832;-70
2023/10/04 02:42:53;;;;;;;56.60;2.47;;;;;;;;;;5050346;28;20468;-70
2023/10/04 02:45:21;;;;;;;57.00;2.70;;;;;;;;;;5050270;28;20456;-69
2023/10/04 02:47:51;;;;;;;56.87;3.80;;;;;;;;;;5050503;28;20571;-69
2023/10/04 02:50:19;;;;;;;56.90;2.90;;;;;;;;;;5050749;28;20486;-69
2023/10/04 02:52:46;;;;;;;56.47;2.23;;;;;;;;;;5050529;28;20453;-69
2023/10/04 02:55:16;;;;;;;56.50;2.40;;;;;;;;;;5050530;28;20808;-69
2023/10/04 02:57:43;;;;;;;56.70;2.60;;;;;;;;;;5052200;28;20475;-70
2023/10/04 03:00:13;;;;;;;57.27;3.00;;;;;;;;;;5054448;28;20460;-70
2023/10/04 03:02:40;;;;;;;56.23;2.40;;;;;;;;;;5054646;28;20452;-70
2023/10/04 03:05:09;;;;;;;56.90;2.63;;;;;;;;;;5054159;28;20490;-70
2023/10/04 03:07:37;;;;;;;56.37;2.30;;;;;;;;;;5054258;28;20488;-70
2023/10/04 03:10:04;;;;;;;56.47;2.10;;;;;;;;;;5053656;28;20471;-70
2023/10/04 03:12:31;;;;;;;56.37;2.43;;;;;;;;;;5054484;28;20444;-71
2023/10/04 03:14:58;;;;;;;56.60;2.40;;;;;;;;;;5053657;28;20448;-69
2023/10/04 03:17:26;;;;;;;63.53;3.23;;;;;;;;;;5054250;28;20444;-69
2023/10/04 03:19:53;;;;;;;56.50;2.30;;;;;;;;;;5053867;28;20452;-71
2023/10/04 03:22:22;;;;;;;57.73;2.53;;;;;;;;;;5053984;28;20452;-70
2023/10/04 03:24:49;;;;;;;56.60;2.30;;;;;;;;;;5053775;28;20540;-71
2023/10/04 03:27:21;;;;;;;56.50;2.63;;;;;;;;;;5053971;28;20492;-71
2023/10/04 03:29:48;;;;;;;56.53;2.80;;;;;;;;;;5053905;28;20456;-70
2023/10/04 03:32:15;;;;;;;56.60;2.43;;;;;;;;;;5053395;28;20447;-70
2023/10/04 03:34:44;;;;;;;56.53;2.67;;;;;;;;;;5053729;28;20452;-70
2023/10/04 03:37:14;;;;;;;56.77;2.70;;;;;;;;;;5053574;28;20978;-70
2023/10/04 03:39:45;;;;;;;56.70;2.50;;;;;;;;;;5053614;28;20448;-70
2023/10/04 03:42:13;;;;;;;56.70;2.47;;;;;;;;;;5053918;28;20459;-70
2023/10/04 03:44:40;;;;;;;56.37;2.47;;;;;;;;;;5053718;28;20472;-70
2023/10/04 03:47:08;;;;;;;56.70;2.70;;;;;;;;;;5053548;28;20487;-71
2023/10/04 03:49:36;;;;;;;56.67;2.40;;;;;;;;;;5053440;28;20478;-71
2023/10/04 03:52:04;;;;;;;56.43;2.37;;;;;;;;;;5053641;28;20712;-71
2023/10/04 03:54:31;;;;;;;56.27;2.30;;;;;;;;;;5045345;28;20452;-70
2023/10/04 03:57:06;;;;;;;56.60;2.43;;;;;;;;;;5053478;28;20455;-70
2023/10/04 03:59:33;;;;;;;56.40;2.30;;;;;;;;;;5045572;28;20585;-71
2023/10/04 04:02:00;;;;;;;56.73;2.70;;;;;;;;;;5053225;28;20455;-71
2023/10/04 04:04:27;;;;;;;56.57;2.27;;;;;;;;;;5053232;28;20443;-71
2023/10/04 04:06:54;;;;;;;56.60;2.30;;;;;;;;;;5053101;28;21015;-71
2023/10/04 04:09:23;;;;;;;56.60;2.47;;;;;;;;;;5052234;28;20508;-68
2023/10/04 04:11:52;;;;;;;56.40;2.40;;;;;;;;;;5052862;28;20456;-69
2023/10/04 04:14:20;;;;;;;56.53;2.40;;;;;;;;;;5053009;28;20464;-70
2023/10/04 04:16:47;;;;;;;56.90;2.43;;;;;;;;;;5052985;28;20451;-70
2023/10/04 04:19:15;;;;;;;56.60;2.43;;;;;;;;;;5052312;28;20486;-70
2023/10/04 04:21:43;;;;;;;56.47;2.33;;;;;;;;;;5053018;28;20452;-70
2023/10/04 04:24:10;;;;;;;56.47;2.33;;;;;;;;;;5052720;28;20478;-70
2023/10/04 04:26:39;;;;;;;56.53;2.27;;;;;;;;;;5052714;28;20491;-70
2023/10/04 04:29:09;;;;;;;56.47;2.50;;;;;;;;;;5052605;28;20472;-70
2023/10/04 04:31:40;;;;;;;56.47;2.13;;;;;;;;;;5045152;28;20851;-70
2023/10/04 04:34:13;;;;;;;56.27;2.40;;;;;;;;;;5052789;28;20815;-70
2023/10/04 04:36:42;;;;;;;56.47;2.50;;;;;;;;;;5052937;28;20451;-70
2023/10/04 04:39:16;;;;;;;56.50;2.47;;;;;;;;;;5052715;28;20476;-70
2023/10/04 04:41:43;;;;;;;57.00;2.93;;;;;;;;;;5053669;28;20531;-70
2023/10/04 04:44:10;;;;;;;56.57;2.57;;;;;;;;;;5053131;28;20491;-69
2023/10/04 04:46:39;;;;;;;56.37;2.60;;;;;;;;;;5052817;28;20491;-69
2023/10/04 04:49:06;;;;;;;56.67;2.43;;;;;;;;;;5052403;28;20479;-69
2023/10/04 04:51:35;;;;;;;56.60;2.40;;;;;;;;;;5052329;28;20441;-69
2023/10/04 04:54:02;;;;;;;56.50;2.40;;;;;;;;;;5052364;28;20846;-69
2023/10/04 04:56:31;;;;;;;56.60;2.43;;;;;;;;;;5052210;28;20483;-69
2023/10/04 04:59:07;;;;;;;56.47;2.53;;;;;;;;;;5052378;28;20581;-70
2023/10/04 05:01:35;;;;;;;56.47;2.33;;;;;;;;;;5051978;28;20455;-70
2023/10/04 05:04:06;;;;;;;56.70;2.50;;;;;;;;;;5052196;28;20547;-70
2023/10/04 05:06:33;;;;;;;56.63;2.47;;;;;;;;;;5052182;28;20475;-71
2023/10/04 05:09:00;;;;;;;56.60;2.33;;;;;;;;;;5051853;28;20464;-70
2023/10/04 05:11:28;;;;;;;56.50;2.73;;;;;;;;;;5051804;28;20967;-69
2023/10/04 05:13:56;;;;;;;56.60;2.47;;;;;;;;;;5052243;28;20552;-69
2023/10/04 05:16:24;;;;;;;56.80;2.30;;;;;;;;;;5051888;28;20819;-70
2023/10/04 05:18:53;;;;;;;56.20;2.37;;;;;;;;;;5051769;28;20476;-70
2023/10/04 05:21:22;;;;;;;57.00;2.80;;;;;;;;;;5051562;28;20460;-70
2023/10/04 05:23:49;;;;;;;56.53;2.50;;;;;;;;;;5051701;28;20467;-69
2023/10/04 05:26:16;;;;;;;56.37;2.23;;;;;;;;;;5052054;28;20459;-70
2023/10/04 05:28:43;;;;;;;56.03;2.50;;;;;;;;;;5051497;28;20483;-71
2023/10/04 05:31:10;;;;;;;56.47;2.50;;;;;;;;;;5052265;28;20450;-71
2023/10/04 05:33:37;;;;;;;56.67;2.50;;;;;;;;;;5051652;28;20440;-69
2023/10/04 05:36:04;;;;;;;56.60;2.47;;;;;;;;;;5051676;28;20549;-70
2023/10/04 05:38:34;;;;;;;56.37;2.40;;;;;;;;;;5051337;28;20982;-70
2023/10/04 05:41:02;;;;;;;56.57;2.50;;;;;;;;;;5051569;28;20444;-70
2023/10/04 05:43:29;;;;;;;56.60;2.60;;;;;;;;;;5051318;28;20471;-70
2023/10/04 05:45:57;;;;;;;56.80;2.50;;;;;;;;;;5051542;28;20444;-70
2023/10/04 05:48:26;;;;;;;56.67;2.53;;;;;;;;;;5050940;28;20499;-70
2023/10/04 05:50:54;;;;;;;56.73;2.43;;;;;;;;;;5051373;28;20448;-70
2023/10/04 05:53:22;;;;;;;56.67;2.53;;;;;;;;;;5051328;28;20940;-70
2023/10/04 05:55:50;;;;;;;56.37;2.20;;;;;;;;;;5051326;28;20450;-69
2023/10/04 05:58:18;;;;;;;56.57;2.53;;;;;;;;;;5051102;28;20461;-70
2023/10/04 06:00:51;;;;;;;57.70;3.07;;;;;;;;;;5051176;28;21341;-70
2023/10/04 06:03:18;;;;;;;56.90;2.57;;;;;;;;;;5051447;28;20452;-70
2023/10/04 06:05:46;;;;;;;56.30;2.50;;;;;;;;;;5051347;28;20452;-70
2023/10/04 06:08:15;;;;;;;56.23;2.37;;;;;;;;;;5050902;28;20500;-70
2023/10/04 06:10:43;;;;;;;56.63;2.63;;;;;;;;;;5050921;28;20497;-70
2023/10/04 06:13:12;;;;;;;56.97;3.17;;;;;;;;;;5051192;28;20916;-70
2023/10/04 06:15:40;;;;;;;56.13;2.37;;;;;;;;;;5050918;28;20919;-70
2023/10/04 06:18:08;;;;;;;56.57;2.60;;;;;;;;;;5050396;28;20559;-71
2023/10/04 06:20:36;;;;;;;56.70;2.60;;;;;;;;;;5050876;28;20824;-71
2023/10/04 06:23:05;;;;;;;57.20;2.80;;;;;;;;;;5050898;28;20460;-70
2023/10/04 06:25:33;;;;;;;56.57;2.60;;;;;;;;;;5050670;28;20487;-70
2023/10/04 06:28:01;;;;;;;56.07;2.20;;;;;;;;;;5050438;28;20567;-70
2023/10/04 06:30:31;;;;;;;57.13;3.50;;;;;;;;;;5050812;28;20448;-71
2023/10/04 06:33:00;;;;;;;56.33;2.60;;;;;;;;;;5050515;28;20937;-70
2023/10/04 06:35:27;;;;;;;56.80;2.80;;;;;;;;;;5050658;28;20456;-70
2023/10/04 06:37:55;;;;;;;56.70;3.17;;;;;;;;;;5050534;28;20470;-70
2023/10/04 06:40:22;;;;;;;56.80;2.57;;;;;;;;;;5050592;28;20445;-70
2023/10/04 06:42:50;;;;;;;56.73;2.77;;;;;;;;;;5050871;28;20804;-70
2023/10/04 06:45:17;;;;;;;57.00;3.17;;;;;;;;;;5050666;28;20455;-70
2023/10/04 06:47:47;;;;;;;56.40;2.60;;;;;;;;;;5050241;28;20498;-70
2023/10/04 06:50:15;;;;;;;56.40;2.63;;;;;;;;;;5050455;28;20467;-70
2023/10/04 06:52:43;;;;;;;57.00;3.07;;;;;;;;;;5050529;28;20456;-70
2023/10/04 06:55:11;;;;;;;57.10;2.80;;;;;;;;;;5050209;28;20444;-70
2023/10/04 06:57:40;;;;;;;56.33;2.50;;;;;;;;;;5050341;28;20464;-70
2023/10/04 07:00:13;;;;;;;56.70;2.80;;;;;;;;;;5050484;28;20451;-70
2023/10/04 07:02:41;;;;;;;56.60;3.00;;;;;;;;;;5042391;28;20480;-69
2023/10/04 07:05:10;;;;;;;56.20;2.40;;;;;;;;;;5050335;28;20989;-70
2023/10/04 07:07:37;;;;;;;56.47;2.47;;;;;;;;;;5049981;28;20884;-70
2023/10/04 07:10:06;;;;;;;56.57;3.00;;;;;;;;;;5050381;28;20441;-70
2023/10/04 07:12:34;;;;;;;56.47;2.60;;;;;;;;;;5050366;28;20452;-69
2023/10/04 07:15:01;;;;;;;56.90;2.60;;;;;;;;;;5050296;28;20444;-70
2023/10/04 07:17:30;;;;;;;56.27;2.30;;;;;;;;;;5050048;28;20449;-70
2023/10/04 07:19:58;;;;;;;56.27;2.53;;;;;;;;;;5049999;28;20455;-70
2023/10/04 07:22:32;;;;;;;57.00;2.87;;;;;;;;;;5050119;28;20456;-70
2023/10/04 07:24:59;;;;;;;57.23;2.40;;;;;;;;;;5050396;28;20760;-70
2023/10/04 07:27:27;;;;;;;56.60;2.53;;;;;;;;;;5049949;28;20480;-70
2023/10/04 07:29:54;;;;;;;56.47;2.47;;;;;;;;;;5049952;28;20444;-70
2023/10/04 07:32:21;;;;;;;56.47;2.63;;;;;;;;;;5050117;28;20440;-70
2023/10/04 07:34:48;;;;;;;56.47;2.70;;;;;;;;;;5049985;28;20440;-71
2023/10/04 07:37:15;;;;;;;56.50;2.50;;;;;;;;;;5050249;28;20445;-71
2023/10/04 07:39:44;;;;;;;56.47;2.60;;;;;;;;;;5048719;28;20465;-71
2023/10/04 07:42:11;;;;;;;56.30;2.50;;;;;;;;;;5046190;28;20451;-71
2023/10/04 07:44:38;;;;;;;57.83;3.20;;;;;;;;;;5049632;28;20456;-70
2023/10/04 07:47:05;;;;;;;56.07;2.40;;;;;;;;;;5053435;28;20444;-71
2023/10/04 07:49:33;;;;;;;56.37;2.60;;;;;;;;;;5053354;28;20980;-71
2023/10/04 07:52:00;;;;;;;56.50;2.60;;;;;;;;;;5053555;28;20454;-71
2023/10/04 07:54:27;;;;;;;56.70;2.70;;;;;;;;;;5053171;28;20964;-71
2023/10/04 07:56:56;;;;;;;57.90;3.30;;;;;;;;;;5053585;28;20455;-71
2023/10/04 07:59:23;;;;;;;56.37;2.60;;;;;;;;;;5053148;28;20654;-71
2023/10/04 08:01:50;;;;;;;56.40;2.67;;;;;;;;;;5053227;28;20821;-71
2023/10/04 08:04:17;;;;;;;56.40;2.50;;;;;;;;;;5053214;28;20506;-71
2023/10/04 08:06:49;;;;;;;56.50;2.30;;;;;;;;;;5053316;28;20535;-71
2023/10/04 08:09:16;;;;;;;56.27;2.33;;;;;;;;;;5052918;28;20519;-71
2023/10/04 08:11:43;;;;;;;56.90;2.40;;;;;;;;;;5053145;28;20459;-71
2023/10/04 08:14:12;;;;;;;56.47;2.30;;;;;;;;;;5053065;28;20472;-71
2023/10/04 08:16:39;;;;;;;56.40;2.40;;;;;;;;;;5053295;28;20447;-71
2023/10/04 08:19:06;;;;;;;56.40;2.50;;;;;;;;;;5053035;28;20467;-71
2023/10/04 08:21:34;;;;;;;56.90;2.70;;;;;;;;;;5052771;28;21003;-71
2023/10/04 08:24:01;;;;;;;56.23;2.20;;;;;;;;;;5052864;28;20543;-71
2023/10/04 08:26:29;;;;;;;56.27;2.40;;;;;;;;;;5052877;28;20454;-71
2023/10/04 08:28:56;;;;;;;56.20;2.40;;;;;;;;;;5052565;28;20488;-70
2023/10/04 08:31:24;;;;;;;56.60;2.47;;;;;;;;;;5052624;28;20941;-70
2023/10/04 08:33:51;;;;;;;56.10;2.10;;;;;;;;;;5052952;28;20510;-70
2023/10/04 08:36:19;;;;;;;56.37;2.30;;;;;;;;;;5052773;28;20582;-70
2023/10/04 08:38:47;;;;;;;56.47;2.30;;;;;;;;;;5052490;28;20621;-70
2023/10/04 08:41:17;;;;;;;56.50;2.60;;;;;;;;;;5052482;28;20474;-71
2023/10/04 08:43:45;;;;;;;56.07;2.20;;;;;;;;;;5044770;28;20459;-71
2023/10/04 08:46:13;;;;;;;56.00;2.10;;;;;;;;;;5052711;28;20456;-70
2023/10/04 08:48:42;;;;;;;56.37;2.00;;;;;;;;;;5052390;28;21023;-70
2023/10/04 08:51:16;;;;;;;56.17;2.27;;;;;;;;;;5052267;28;20459;-70
2023/10/04 08:53:49;;;;;;;56.30;2.50;;;;;;;;;;5052287;28;20459;-70
2023/10/04 08:56:17;;;;;;;56.17;2.07;;;;;;;;;;5052271;28;20518;-70
2023/10/04 08:58:44;;;;;;;56.37;2.30;;;;;;;;;;5052308;28;20468;-71
2023/10/04 09:01:12;;;;;;;57.03;2.90;;;;;;;;;;5052322;28;20455;-71
2023/10/04 09:03:41;;;;;;;56.00;2.30;;;;;;;;;;5052213;28;20503;-71
2023/10/04 09:06:11;;;;;;;56.37;2.20;;;;;;;;;;5052091;28;20445;-71
2023/10/04 09:08:40;;;;;;;56.40;2.30;;;;;;;;;;5051730;28;21020;-70
2023/10/04 09:11:10;;;;;;;56.30;2.30;;;;;;;;;;5052123;28;20452;-70
2023/10/04 09:13:43;;;;;;;56.70;2.80;;;;;;;;;;5051885;28;20971;-70
2023/10/04 09:16:20;;;;;;;56.40;2.40;;;;;;;;;;5051973;28;21014;-70
2023/10/04 09:18:47;;;;;;;56.43;2.60;;;;;;;;;;5051830;28;20460;-70
2023/10/04 09:21:18;;;;;;;59.17;2.60;;;;;;;;;;5051976;28;20452;-70
2023/10/04 09:23:46;;;;;;;56.40;2.13;;;;;;;;;;5051821;28;20851;-70
2023/10/04 09:26:16;;;;;;;56.03;2.03;;;;;;;;;;5052066;28;20440;-69
2023/10/04 09:28:44;;;;;;;57.10;3.30;;;;;;;;;;5051611;28;20808;-69
2023/10/04 09:31:12;;;;;;;61.13;2.73;;;;;;;;;;5051521;28;20448;-69
2023/10/04 09:33:40;;;;;;;56.27;2.60;;;;;;;;;;5051392;28;20459;-69
2023/10/04 09:36:10;;;;;;;56.40;2.00;;;;;;;;;;5051714;28;20501;-69
2023/10/04 09:38:39;;;;;;;56.50;2.30;;;;;;;;;;5051442;28;20468;-69
2023/10/04 09:41:06;;;;;;;56.30;2.20;;;;;;;;;;5051591;28;20494;-69
2023/10/04 09:43:36;;;;;;;55.90;2.20;;;;;;;;;;5050158;28;20852;-69
2023/10/04 09:46:04;;;;;;;56.37;2.23;;;;;;;;;;5045470;28;20447;-69
2023/10/04 09:48:33;;;;;;;56.20;2.30;;;;;;;;;;5051037;28;20491;-69
2023/10/04 09:51:01;;;;;;;56.27;1.93;;;;;;;;;;5051303;28;20459;-69
2023/10/04 09:53:28;;;;;;;56.40;2.03;;;;;;;;;;5051235;28;20455;-69
2023/10/04 09:55:59;;;;;;;55.97;1.80;;;;;;;;;;5051200;28;20490;-69
2023/10/04 09:58:29;;;;;;;55.83;1.80;;;;;;;;;;5050899;28;20964;-69
2023/10/04 10:00:57;;;;;;;56.07;2.47;;;;;;;;;;5051447;28;20934;-68
2023/10/04 10:03:27;;;;;;;56.07;1.87;;;;;;;;;;5051226;28;20449;-68
2023/10/04 10:05:56;;;;;;;55.83;1.70;;;;;;;;;;5050965;28;20471;-69
2023/10/04 10:08:26;;;;;;;56.10;1.80;;;;;;;;;;5050406;28;20488;-69
2023/10/04 10:10:53;;;;;;;56.40;2.50;;;;;;;;;;5050717;28;20455;-70
2023/10/04 10:13:22;;;;;;;56.10;1.90;;;;;;;;;;5051233;28;20452;-70
2023/10/04 10:15:49;;;;;;;56.27;2.10;;;;;;;;;;5051297;28;20539;-69
2023/10/04 10:18:18;;;;;;;57.13;2.63;;;;;;;;;;5050748;28;20453;-68
2023/10/04 10:20:45;;;;;;;55.30;1.80;;;;;;;;;;5050756;28;20449;-69
2023/10/04 10:23:16;;;;;;;56.17;1.80;;;;;;;;;;5050823;28;20460;-70
2023/10/04 10:25:58;;;;;;;55.77;1.83;;;;;;;;;;5050746;28;20458;-68
2023/10/04 10:28:28;;;;;;;56.00;1.77;;;;;;;;;;5050633;28;20571;-69
2023/10/04 10:31:07;;;;;;;55.90;1.97;;;;;;;;;;5050978;28;20870;-69
2023/10/04 10:33:34;;;;;;;55.50;1.60;;;;;;;;;;5050722;28;20455;-69
2023/10/04 10:36:01;;;;;;;57.03;1.90;;;;;;;;;;5050531;28;20661;-69
2023/10/04 10:38:32;;;;;;;55.67;1.70;;;;;;;;;;5050643;28;20464;-69
2023/10/04 10:40:59;;;;;;;56.00;2.07;;;;;;;;;;5050441;28;20945;-69
2023/10/04 10:43:28;;;;;;;55.50;1.63;;;;;;;;;;5050487;28;20455;-68
2023/10/04 10:45:56;;;;;;;55.47;1.50;;;;;;;;;;5050694;28;20907;-68
2023/10/04 10:48:33;;;;;;;55.70;1.80;;;;;;;;;;5050231;28;20484;-69
2023/10/04 10:51:01;;;;;;;55.90;2.17;;;;;;;;;;5050551;28;20890;-69
2023/10/04 10:53:28;;;;;;;55.80;1.70;;;;;;;;;;5050616;28;20823;-70
2023/10/04 10:55:55;;;;;;;55.47;1.60;;;;;;;;;;5050539;28;20440;-67
2023/10/04 10:58:22;;;;;;;55.90;1.70;;;;;;;;;;5050339;28;20460;-69
2023/10/04 11:00:51;;;;;;;55.40;1.57;;;;;;;;;;5050164;28;20432;-69
2023/10/04 11:03:20;;;;;;;55.40;2.00;;;;;;;;;;5050586;28;20484;-68
2023/10/04 11:05:47;;;;;;;55.40;1.73;;;;;;;;;;5050407;28;20444;-69
2023/10/04 11:08:15;;;;;;;55.43;1.60;;;;;;;;;;5050371;28;20492;-69
2023/10/04 11:10:43;;;;;;;56.27;1.90;;;;;;;;;;5050268;28;20495;-69
2023/10/04 11:13:17;;;;;;;55.07;1.60;;;;;;;;;;5050466;28;20448;-70
2023/10/04 11:15:46;;;;;;;55.60;1.70;;;;;;;;;;5050551;28;20538;-70
2023/10/04 11:18:16;;;;;;;55.23;1.67;;;;;;;;;;5051700;28;20464;-70
2023/10/04 11:20:43;;;;;;;55.70;1.70;;;;;;;;;;5054506;28;20444;-70
2023/10/04 11:23:11;;;;;;;55.20;1.60;;;;;;;;;;5054177;28;20459;-70
2023/10/04 11:25:38;;;;;;;55.07;1.60;;;;;;;;;;5053942;28;20448;-70
2023/10/04 11:28:07;;;;;;;55.90;1.70;;;;;;;;;;5053843;28;20496;-70
2023/10/04 11:30:34;;;;;;;55.17;1.60;;;;;;;;;;5054228;28;20448;-70
2023/10/04 11:33:01;;;;;;;55.40;1.50;;;;;;;;;;5053944;28;20478;-70
2023/10/04 11:35:35;;;;;;;54.90;1.50;;;;;;;;;;5053684;28;20448;-70
2023/10/04 11:38:05;;;;;;;55.30;1.50;;;;;;;;;;5053426;28;20479;-70
2023/10/04 11:40:32;;;;;;;55.20;1.70;;;;;;;;;;5053171;28;20492;-70
2023/10/04 11:43:00;;;;;;;55.40;1.60;;;;;;;;;;5053943;28;20444;-70
2023/10/04 11:45:28;;;;;;;55.20;1.63;;;;;;;;;;5054052;28;20452;-70
2023/10/04 11:47:59;;;;;;;55.20;1.40;;;;;;;;;;5053823;28;20483;-71
2023/10/04 11:50:27;;;;;;;56.00;2.83;;;;;;;;;;5053508;28;20499;-70
2023/10/04 11:52:56;;;;;;;55.43;1.50;;;;;;;;;;5053780;28;20452;-71
2023/10/04 11:55:27;;;;;;;55.00;1.50;;;;;;;;;;5053903;28;20448;-70
2023/10/04 11:57:55;;;;;;;54.77;1.47;;;;;;;;;;5053025;28;20468;-70
2023/10/04 12:00:22;;;;;;;55.00;1.50;;;;;;;;;;5049017;28;20526;-71
2023/10/04 12:02:49;;;;;;;54.87;1.50;;;;;;;;;;5053109;28;20447;-69
2023/10/04 12:05:16;;;;;;;54.93;1.57;;;;;;;;;;5053217;28;20888;-70
2023/10/04 12:07:44;;;;;;;55.50;1.90;;;;;;;;;;5053054;28;20574;-70
2023/10/04 12:10:13;;;;;;;54.80;1.50;;;;;;;;;;5053359;28;20444;-69
2023/10/04 12:12:40;;;;;;;55.07;1.50;;;;;;;;;;5053345;28;20817;-69
2023/10/04 12:15:08;;;;;;;54.87;1.33;;;;;;;;;;5053329;28;20463;-70
2023/10/04 12:17:36;;;;;;;54.97;1.50;;;;;;;;;;5053220;28;20563;-70
2023/10/04 12:20:06;;;;;;;55.20;1.60;;;;;;;;;;5053116;28;20486;-70
2023/10/04 12:22:33;;;;;;;55.20;1.43;;;;;;;;;;5053129;28;20452;-69
2023/10/04 12:25:00;;;;;;;54.97;1.53;;;;;;;;;;5053157;28;20453;-70
2023/10/04 12:27:29;;;;;;;54.53;1.50;;;;;;;;;;5053103;28;20454;-70
2023/10/04 12:29:56;;;;;;;54.80;1.40;;;;;;;;;;5052122;28;20455;-70
2023/10/04 12:32:24;;;;;;;54.70;1.40;;;;;;;;;;5053349;28;20505;-70
2023/10/04 12:34:51;;;;;;;54.67;1.40;;;;;;;;;;5052711;28;20441;-70
2023/10/04 12:37:18;;;;;;;54.60;1.60;;;;;;;;;;5052993;28;20828;-69
2023/10/04 12:39:45;;;;;;;54.73;1.60;;;;;;;;;;5052772;28;20489;-70
2023/10/04 12:42:13;;;;;;;55.10;1.60;;;;;;;;;;5052898;28;20460;-69
2023/10/04 12:44:41;;;;;;;55.50;1.60;;;;;;;;;;5052782;28;20566;-70
2023/10/04 12:47:09;;;;;;;55.30;1.60;;;;;;;;;;5052682;28;20448;-70
2023/10/04 12:49:37;;;;;;;54.60;1.50;;;;;;;;;;5052759;28;20518;-70
2023/10/04 12:52:06;;;;;;;55.17;1.67;;;;;;;;;;5052856;28;20552;-70
2023/10/04 12:54:34;;;;;;;54.90;1.40;;;;;;;;;;5052852;28;20452;-70
2023/10/04 12:57:02;;;;;;;54.80;1.70;;;;;;;;;;5052433;28;20949;-70
2023/10/04 12:59:29;;;;;;;54.70;1.50;;;;;;;;;;5052198;28;20572;-71
2023/10/04 13:01:57;;;;;;;54.77;1.80;;;;;;;;;;5052046;28;20445;-70
2023/10/04 13:04:24;;;;;;;54.53;1.50;;;;;;;;;;5052309;28;20448;-70
2023/10/04 13:06:51;;;;;;;54.50;1.30;;;;;;;;;;5052468;28;20539;-70
2023/10/04 13:09:19;;;;;;;54.40;1.40;;;;;;;;;;5052576;28;20464;-70
2023/10/04 13:11:47;;;;;;;54.40;1.50;;;;;;;;;;5052405;28;20444;-70
2023/10/04 13:14:14;;;;;;;54.87;1.60;;;;;;;;;;5052325;28;20929;-70
2023/10/04 13:16:42;;;;;;;54.60;1.60;;;;;;;;;;5052606;28;20444;-70
2023/10/04 13:19:11;;;;;;;56.20;1.80;;;;;;;;;;5053200;28;20586;-70
2023/10/04 13:21:38;;;;;;;54.57;1.57;;;;;;;;;;5058375;28;20510;-70
2023/10/04 13:24:06;;;;;;;54.90;1.60;;;;;;;;;;5058663;28;20539;-70
2023/10/04 13:26:33;;;;;;;55.00;1.70;;;;;;;;;;5058476;28;20944;-70
2023/10/04 13:29:00;;;;;;;55.00;1.50;;;;;;;;;;5056973;28;20472;-70
2023/10/04 13:31:29;;;;;;;54.77;1.47;;;;;;;;;;5057945;28;20460;-70
2023/10/04 13:33:56;;;;;;;55.10;1.60;;;;;;;;;;5058620;28;20447;-70
2023/10/04 13:36:25;;;;;;;58.90;1.80;;;;;;;;;;5059200;28;20940;-70
2023/10/04 13:38:52;;;;;;;55.30;1.60;;;;;;;;;;5059877;28;20522;-70
2023/10/04 13:41:19;;;;;;;55.90;2.00;;;;;;;;;;5059517;28;20458;-71
2023/10/04 13:43:47;;;;;;;55.17;1.63;;;;;;;;;;5059767;28;20548;-71
2023/10/04 13:46:15;;;;;;;55.60;1.60;;;;;;;;;;5052401;28;20452;-69
2023/10/04 13:48:43;;;;;;;55.27;1.60;;;;;;;;;;5051610;28;20824;-68
2023/10/04 13:51:11;;;;;;;56.13;1.70;;;;;;;;;;5051628;28;20459;-70
2023/10/04 13:53:40;;;;;;;55.50;1.70;;;;;;;;;;5052087;28;20519;-69
2023/10/04 13:56:08;;;;;;;55.60;1.60;;;;;;;;;;5051493;28;20455;-69
2023/10/04 13:58:36;;;;;;;56.20;1.60;;;;;;;;;;5050765;28;20890;-69
2023/10/04 14:01:04;;;;;;;55.93;1.60;;;;;;;;;;5051403;28;20515;-67
2023/10/04 14:03:33;;;;;;;55.57;1.67;;;;;;;;;;5051527;28;20498;-68
2023/10/04 14:06:06;;;;;;;55.87;1.70;;;;;;;;;;5043471;28;20872;-68
2023/10/04 14:08:34;;;;;;;55.87;1.87;;;;;;;;;;5051379;28;20971;-68
2023/10/04 14:11:04;;;;;;;56.20;1.90;;;;;;;;;;5051630;28;20860;-68
2023/10/04 14:13:31;;;;;;;55.83;1.83;;;;;;;;;;5051464;28;20491;-69
2023/10/04 14:15:58;;;;;;;55.77;1.80;;;;;;;;;;5051419;28;20513;-69
2023/10/04 14:18:26;;;;;;;55.57;1.77;;;;;;;;;;5050963;28;20977;-70
2023/10/04 14:20:56;;;;;;;56.20;2.00;;;;;;;;;;5050533;28;20999;-69
2023/10/04 14:23:24;;;;;;;56.00;1.67;;;;;;;;;;5051151;28;20860;-69
2023/10/04 14:25:54;;;;;;;56.67;1.97;;;;;;;;;;5050933;28;20459;-69
2023/10/04 14:28:23;;;;;;;56.20;2.37;;;;;;;;;;5050797;28;20981;-69
2023/10/04 14:30:50;;;;;;;56.10;1.93;;;;;;;;;;5050842;28;20455;-69
2023/10/04 14:33:17;;;;;;;56.40;2.13;;;;;;;;;;5050932;28;20869;-69
2023/10/04 14:35:45;;;;;;;55.77;2.13;;;;;;;;;;5051058;28;20538;-69
2023/10/04 14:38:15;;;;;;;56.80;1.90;;;;;;;;;;5050947;28;20471;-69